Timeline UpdatesTrip UpdatesNews PostsPvt PostsTravel TipsAdmin PostsConv PostsFollowed PostsChat RequestsBlog PostsPNR Posts

Disclaimer
Search
 
 
Thu Apr 17, 2014 09:57:35 ISTHomeTrainsΣChainsAtlasPNRForumGalleryNewsFAQTripsMembersLoginFeedback
No Recent News for this Train
Other Trains in the News **new
Latest...
T.No. 17479 Puri-Tirupati Express is cancelled today i.e., on 24th October 2013 between Puri and Palasa.2013.
Thu Oct 24, 2013 (04:33PM)
⇐ Return Journey: Train# 17480

17479/Puri-Tirupati Express

Jul 03 2013 (9:25AM)
Change Departure Station:
Change Arrival Station:
Post a Train Travel TipPost a Train Travel Tip **new
Post a Comment/Question/Picture/VideoPost a Comment/Question/Picture/Video
Inaugural Run
Wed Jan 01, 1992
Pantry/Catering
✕ NO Pantry Car
✕ NO Catering
Loco/Rake Reversals
VSKP/Visakhapatnam Junction (8); KUR/Khurda Road Junction (7);
RSA - Rake Sharing
Rake/Coach Composition
Entry# 194081 Author: νιηαy దత్త 1:; SLRD(For Disabled + Ladies Only) - UR - UR - S1 - S2 - S3 - S4 - S5 - B1 - UR - UR - UR - SLR(Ladies Only)
Loco
Official Loco:- PURI/KUR - VSKP:- WAM-4 VSKP - RJY:- WAM-4/WAP-1 RJY - BZA:-...
Read more...
WDM-2A/WDM-3A BZA - TPTY:- WAM-4/WAP-1
News    PNR    Forum    Time-Table    Availability    Fare Chart    Map    Arr/Dep History    Trips    Gallery    ΣChains    X/O    Timeline    
Travel Time: 3h 30m    9 halts    Distance: 200 km    Avg Speed: 57 km/hr
Type: Mail/Express
Zone: SCR/South Central
Departs @ 23:40 (Avg 5m late)
Platform# 2
SM WTF 
Visakhapatnam Junction/VSKP 
Arrives @ 03:10 +1 night (Avg 26m late)
Platform# 1
 MT TFS
Rajahmundry/RJY 

9 halts. 32 intermediate Stations between Visakhapatnam Junction and Rajahmundry

Show ALL intermediate Stations  Show Old Time-Table

#CodeStation NameX/OArrivesAvgDepartsAvgHaltPFDay#KmSpeedElevZoneAddress
1PURIPuri (5)  -12:25+491-469.04912mECoRPuri, Odisha
2SILSakhi Gopal (3)  12:45+1112:46+111m--1-452.64210mECoRPuri, Odisha
3KURKhurda Road Junction (7)X13:25+913:50+1425m--1-425.17625mECoRKhordha, Odisha
4NKPNirakarpurX  14:11+2014:12+221m--1-398.75321mECoRNirakarpur, Odisha
5BSDPBhusandpur  14:20+2114:21+231m--1-391.66620mECoRBhushandapur, Odisha
6KAPGKalupara GhatX  14:30+2314:31+231m--1-381.85810mECoRChandeswar, Odisha
7KUUKuhuri  14:38+2314:39+231m--1-375.06026mECoRKhordha, Odisha
8GNGDGangadharpur  14:47+2314:48+251m--1-367.16022mECoRKhordha, Odisha
9BALUBalugaon (3)X  15:01+2515:02+271m--1-354.16211mECoR752030, Odisha
10CLKAChilka  15:09+2715:10+271m--1-346.87525mECoRBarkul, Odisha
11KITKhallikot (3)X  15:18+2715:19+281m--1-336.96713mECoRKhallikot, Odisha
12RBARambha  15:29+2715:30+271m--1-325.68014mECoRGanjam District, Odisha
13GAMGanjamX  15:43+2915:44+311m--1-308.4538mECoRGanjam, Odisha
14CAPChatrapur  15:54+2915:55+321m--1-299.56436mECoRChatrapur, Odisha
15BAMBrahmapur (3)  16:15+3016:20+315m31-278.06727mECoRBerhampur, Odisha
16IPMIchchapuram  16:42+3016:43+311m--1-253.66021mECoRIchchapuram, Andhra Pradesh
17SPTSompeta (4)X  17:01+2817:02+311m--1-235.58748mECoRKanchili, Andhra Pradesh
18MMSMandasa Road  17:15+1417:16+141m11-216.71138mECoRSrikakulam, Andhra Pradesh
19PSAPalasa (3)X  18:25+118:30+25m--1-203.76731mECoRKasibugga, Andhra Pradesh
20PUNPundi  18:41+918:42+101m--1-191.46238mECoRSrikakulam, Andhra Pradesh
21NWPNaupada Junction  18:55+918:56+111m--1-177.97513mECoRNuapada . ph.no. 08945-249728, Andhra Pradesh
22KBMKotabommali  19:07+1019:08+111m--1-164.17513mECoRSrikakulam, Andhra Pradesh
23TIUTilaru (4)  19:19+1119:20+131m--1-150.45950mECoRSrikakulam District, Andhra Pradesh
24CHESrikakulam Road (4)X  19:40+919:45+95m--1-130.74334mECoRsrikakulam road ph .no. 08942-287222, Andhra Pradesh
25DUSIDusi  19:54+619:55+91m--1-124.25928mECoRSrikakulam, Andhra Pradesh
26PDUPonduru  20:04+820:05+101m--1-115.46739mECoRSrikakulam, Andhra Pradesh
27SGDMSigadam  20:14+1120:15+131m--1-105.37267mECoRSrikakulam, Andhra Pradesh
28CPPChipurupalleX  20:26+1320:27+211m--1-92.14499mECoRCheepurupalli, Andhra Pradesh
29GVIGarividi  20:36+1920:37+211m--1-85.52892mECoRGarividi Railway Station Rd, Andhra Pradesh
30VZMVizianagaram Junction (5)  21:30+121:35+35m--1-61.26863mECoRVizianagaram ph.no 08922-225510, Andhra Pradesh
31KTVKottavalasa Junction (5)O  22:06+522:07+71m--1-26.26458mECoRVizianagaram District, Andhra Pradesh
32SCMSimhachalam (2)XO  22:24+022:25+11m--1-8.1927mECoRVisakhapatnam, Andhra Pradesh
33VSKP»Visakhapatnam Junction (8)»X23:20-123:40+520m210.03411mECoRVishakhapatnam 530001, Andhra Pradesh
34DVDDuvvada (4)X  00:09+900:10+111m1216.35346mECoRVishakhapatnam District, Andhra Pradesh
35AKPAnakapalle (3)  00:28+1600:29+161m2232.35930mSCRAnakapalle ph.no . 08924-221698, Andhra Pradesh
36YLMElamanchili (2)  00:53+1500:54+151m--256.010423mSCRVisakhapatnam District, Andhra Pradesh
37TUNITuni (2)  01:17+2501:18+261m1296.17124mSCRTuni ph.no. 08854-252172, Andhra Pradesh
38ANVAnnavaram (3)X  01:32+2701:33+281m12112.78327mSCREast Godavari District, Andhra Pradesh
39PAPPithapuram (2)X  01:51+3101:52+311m--2137.55622mSCREast Godavari District, Andhra Pradesh
40SLOSamalkot Junction (3)X  02:05+3002:06+311m32149.68418mSCRKakinada ph.no.0884-2328824, Andhra Pradesh
41APTAnaparti (3)X  02:25+3202:26+321m--2176.14521mSCREast Godavari District, Andhra Pradesh
42DWPDwarapudi (3)  02:31+3202:32+321m--2179.93120mSCREast Godavari District, Andhra Pradesh
43RJY•Rajahmundry (3)•X03:10+2603:25+3015m12199.83623mSCRRajahmundry ph.no. 0883-2420541, Andhra Pradesh
44KVRKovvur (3)  03:38+3203:39+331m32207.64325mSCRWest Godavari, Andhra Pradesh
45NDDNidadavolu Junction (3)  03:59+3004:00+311m22222.05420mSCRNidadavolu jtn ph.no. 08813-210325, Andhra Pradesh
46TNKUTanuku (2)  04:19+3404:20+351m--2239.14512mSCR131, Andhra Pradesh
47ALAttili (1)  04:34+3404:35+341m12249.74614mSCRWest Godavari, Andhra Pradesh
48BVRTBhimavaram Town (2)  05:01+3105:02+331m12269.5488mSCRBhimavaram, Andhra Pradesh
49AKVDAkividu (3)X  05:24+3405:25+381m--2287.1485mSCRCoast Andhra, Andhra Pradesh
50KKLRKaikaluru (2)X  05:46+4505:47+461m--2303.8348mSCRKaikalur, Andhra Pradesh
51GDVGudivada Junction (3)X  06:39+3906:40+411m--2333.13211mSCRKrishna District, Andhra Pradesh
52BZAVijayawada Junction (10)X  08:00+3208:20+3320m12376.35624mSCRVijayawada 520001, Andhra Pradesh
53DIGDuggirala (2)  08:43+4008:44+441m--2397.86516mSCRDuggirala, Andhra Pradesh
54TELTenali Junction (5)  08:53+4608:54+471m32407.56616mSCRTel: 08644-227834, Andhra Pradesh
55NDONidubrolu (3)X  09:14+5009:15+521m--2429.5659mSCRNidubrolu, Andhra Pradesh
56BPPBapatla (3)  09:34+5409:35+551m22450.17510mSCRBapatla, Andhra Pradesh
57CLXChirala (4)X  09:47+5709:48+591m--2465.2528mSCRChirala, Andhra Pradesh
58VTMVetapalem (3)  09:57+5909:58+1:021m--2473.1688mSCRVetapalem, Andhra Pradesh
59CJMChinnaganjam (3)X  10:09+1:0310:10+1:041m--2485.5659mSCRChinna Ganjam, Andhra Pradesh
60ANBAmmanabrolu (3)  10:23+1:0610:24+1:071m--2499.64516mSCRAmmanabrolu, Andhra Pradesh
61OGLOngole (3)XO  10:44+1:0310:45+1:061m32514.56212mSCROngole ph.no . 08592-280202, Andhra Pradesh
62TNRTanguturu (2)  11:03+1:0811:04+1:081m--2533.27210mSCRTanguturu, Andhra Pradesh
63SKMSingarayakonda (3)  11:12+1:0911:13+1:101m32542.86326mSCRSingarayakonda, Andhra Pradesh
64KVZKavali (4)XO  11:49+5211:50+521m22580.57021mSCRKavali, Andhra Pradesh
65BTTRBitragunta (2)  12:04+5112:05+511m22597.07615mSCRBitragunta, Andhra Pradesh
66NLRNellore (4)X  12:32+2312:33+211m22631.32721mSCRNellore, Andhra Pradesh
67GDRGudur Junction (3)X  14:00+214:05+15m12669.86819mSCRGudur, Andhra Pradesh
68VDDVendodu (2)X  14:22+2014:23+221m--2689.07655mSCRNellore, Andhra Pradesh
69VKIVenkatagiri (3)X  14:36+2214:37+231m22705.56177mSCRNellore District, Andhra Pradesh
70KHTSri Kalahasti (2)  15:01+2115:02+221m12730.03068mSCRChittoor District, Andhra Pradesh
71RURenigunta Junction (5)  15:48+915:50+102m--2753.113113mSCRChittoor District, Andhra Pradesh
72TPTYTirupati Main (5)  16:35-2-42763.0-150mSCRChittoor Distt, Andhra Pradesh
Scroll to Top
Scroll to Bottom